Terminal Aerodrome Forecast
Issued by NWS

Home | Current Version | Previous Version | Graphics & Text | Print | Product List | Glossary On
Versions: 1 2 3 4 5 6 7 8 9 10 11 12 13 14 15 16 17 18 19
000
FTUS43 KIWX 291700
TAFSBN
TAF
KSBN 291735Z 2918/3018 33015G25KT 5SM -RASN BR BKN008 OVC012
     FM292300 32013G22KT 4SM -SHSN OVC012
     FM300800 34014G24KT 2SM -SHSN OVC010
     FM301600 35008KT P6SM OVC020=

USA.gov is the U.S. government's official web portal to all federal, state and local government web resources and services.